Terminal Aerodrome Forecast
Issued by NWS Binghamton, NY

Home | Current Version | Previous Version | Text Only | Print | Product List | Glossary On
Versions: 1 2 3 4 5 6 7 8 9 10 11 12 13 14 15 16
000
FTUS41 KBGM 192326
TAFAVP
TAF
KAVP 192326Z 2000/2024 24008KT P6SM SCT050
      TEMPO 2001/2003 5SM TSRA OVC030CB
     FM200300 27003KT P6SM SCT050 SCT100
      TEMPO 2008/2012 5SM BR SCT015
     FM201300 31010KT P6SM SCT050=

USA.gov is the U.S. government's official web portal to all federal, state and local government web resources and services.